Time;durP1;ratioP1;P1;durP2;ratioP2;P2;SDS_P1;SDS_P2;PMS_P1;PMS_P2;Temp;Humidity;BMP_temperature;BMP_pressure;BME280_temperature;BME280_humidity;BME280_pressure;Samples;Min_cycle;Max_cycle;Signal;HPM_P1;HPM_P2
2021/12/19 00:01:27;;;;;;;8.27;5.20;;;19.20;48.70;;;;;;5074015;28;20045;-74
2021/12/19 00:04:16;;;;;;;6.53;4.88;;;19.30;48.70;;;;;;5072931;28;20032;-74
2021/12/19 00:09:24;;;;;;;7.82;5.15;;;19.20;48.60;;;;;;5059028;28;20015;-74
2021/12/19 00:11:49;;;;;;;5.78;5.18;;;19.20;49.30;;;;;;5073704;28;20045;-74
2021/12/19 00:14:35;;;;;;;6.00;5.38;;;19.20;48.70;;;;;;5059223;28;20024;-74
2021/12/19 00:17:00;;;;;;;5.63;5.10;;;19.20;48.70;;;;;;5039305;28;20479;-74
2021/12/19 00:19:26;;;;;;;6.63;5.57;;;19.30;48.80;;;;;;5072285;28;20021;-75
2021/12/19 00:21:52;;;;;;;5.30;4.68;;;19.30;48.70;;;;;;5055650;28;20490;-75
2021/12/19 00:24:18;;;;;;;7.95;5.28;;;19.30;48.70;;;;;;5039121;28;20486;-73
2021/12/19 00:26:43;;;;;;;5.93;5.25;;;19.30;48.60;;;;;;5056281;28;20021;-73
2021/12/19 00:29:09;;;;;;;6.40;5.30;;;19.30;48.60;;;;;;5055599;28;20479;-73
2021/12/19 00:31:35;;;;;;;7.32;5.20;;;19.30;48.70;;;;;;5055889;28;20023;-73
2021/12/19 00:34:01;;;;;;;5.88;4.88;;;19.30;48.60;;;;;;5055947;28;20021;-73
2021/12/19 00:36:27;;;;;;;5.38;4.88;;;19.30;48.60;;;;;;5072838;28;20021;-73
2021/12/19 00:38:54;;;;;;;6.68;5.25;;;19.30;48.60;;;;;;5073769;28;20425;-73
2021/12/19 00:41:22;;;;;;;5.80;5.28;;;19.30;48.60;;;;;;5073843;28;20016;-73
2021/12/19 00:43:56;;;;;;;4.97;4.45;;;19.30;48.60;;;;;;5055732;28;20100;-73
2021/12/19 00:46:23;;;;;;;5.88;4.75;;;19.30;48.60;;;;;;5073016;28;20393;-73
2021/12/19 00:48:51;;;;;;;6.25;5.45;;;19.30;48.60;;;;;;5039611;28;20029;-74
2021/12/19 00:51:22;;;;;;;5.38;4.88;;;19.30;48.60;;;;;;5039260;28;20103;-73
2021/12/19 00:53:48;;;;;;;5.25;4.75;;;19.40;48.60;;;;;;5039395;28;20020;-73
2021/12/19 00:56:14;;;;;;;7.15;5.30;;;19.40;48.60;;;;;;5072438;28;20024;-74
2021/12/19 00:58:41;;;;;;;6.25;4.97;;;19.40;48.60;;;;;;5072832;28;20099;-74
2021/12/19 01:01:07;;;;;;;5.03;4.47;;;19.40;48.60;;;;;;5056031;28;20017;-73
2021/12/19 01:03:33;;;;;;;5.50;4.55;;;19.40;48.60;;;;;;5055608;28;20021;-73
2021/12/19 01:05:59;;;;;;;5.60;4.95;;;19.40;48.60;;;;;;5056535;28;20016;-73
2021/12/19 01:08:25;;;;;;;5.50;4.75;;;19.40;48.60;;;;;;5039587;28;20374;-73
2021/12/19 01:10:52;;;;;;;6.32;4.68;;;19.40;48.50;;;;;;5073329;28;20029;-73
2021/12/19 01:13:18;;;;;;;9.35;4.78;;;19.40;48.40;;;;;;5056170;28;20386;-73
2021/12/19 01:15:44;;;;;;;5.00;4.50;;;19.40;48.60;;;;;;5073083;28;20035;-73
2021/12/19 01:18:11;;;;;;;5.43;4.68;;;19.30;48.60;;;;;;5056190;28;20029;-73
2021/12/19 01:20:37;;;;;;;5.05;4.55;;;19.30;48.60;;;;;;5073681;28;20036;-73
2021/12/19 01:23:04;;;;;;;5.35;4.32;;;19.40;48.60;;;;;;5055457;28;20025;-73
2021/12/19 01:25:30;;;;;;;5.07;4.57;;;19.40;48.60;;;;;;5056052;28;20017;-74
2021/12/19 01:27:56;;;;;;;5.30;4.57;;;19.30;48.60;;;;;;5075038;28;20576;-74
2021/12/19 01:30:22;;;;;;;5.55;4.93;;;19.40;48.60;;;;;;5056978;28;20019;-74
2021/12/19 01:32:49;;;;;;;5.35;4.50;;;19.30;48.60;;;;;;5074282;28;20084;-74
2021/12/19 01:35:15;;;;;;;5.78;4.68;;;19.30;48.60;;;;;;5073907;28;20008;-73
2021/12/19 01:37:42;;;;;;;5.88;4.75;;;19.30;48.60;;;;;;5056881;28;20050;-74
2021/12/19 01:40:10;;;;;;;4.78;4.30;;;19.30;48.60;;;;;;5059159;28;20154;-73
2021/12/19 01:42:47;;;;;;;5.70;4.63;;;19.40;48.60;;;;;;5042534;28;20009;-74
2021/12/19 01:45:15;;;;;;;5.63;4.57;;;19.40;48.70;;;;;;5059073;28;20111;-75
2021/12/19 01:47:41;;;;;;;4.82;4.10;;;19.40;48.60;;;;;;5075675;28;20013;-73
2021/12/19 01:50:08;;;;;;;5.55;4.50;;;19.40;48.60;;;;;;5077483;28;20146;-73
2021/12/19 01:52:33;;;;;;;7.13;4.55;;;19.40;48.60;;;;;;5076218;28;20501;-75
2021/12/19 01:54:59;;;;;;;5.45;4.63;;;19.40;48.60;;;;;;5059245;28;20024;-75
2021/12/19 01:57:25;;;;;;;7.10;4.45;;;19.30;48.60;;;;;;5059181;28;20044;-74
2021/12/19 01:59:52;;;;;;;4.93;4.28;;;19.30;48.60;;;;;;5077311;28;20021;-74
2021/12/19 02:02:19;;;;;;;4.70;4.05;;;19.30;48.70;;;;;;5076154;28;20024;-74
2021/12/19 02:04:44;;;;;;;5.85;4.32;;;19.30;48.80;;;;;;5042619;28;20023;-74
2021/12/19 02:07:11;;;;;;;4.20;3.80;;;19.30;48.90;;;;;;5076234;28;20020;-75
2021/12/19 02:09:39;;;;;;;4.82;4.22;;;19.30;49.00;;;;;;5076232;28;20021;-74
2021/12/19 02:12:06;;;;;;;4.30;3.90;;;19.30;49.00;;;;;;5059678;28;20088;-75
2021/12/19 02:14:32;;;;;;;4.88;4.35;;;19.20;48.90;;;;;;5076300;28;20044;-75
2021/12/19 02:16:59;;;;;;;5.53;4.35;;;19.20;49.00;;;;;;5077635;28;20017;-74
2021/12/19 02:19:25;;;;;;;4.75;4.28;;;19.10;49.10;;;;;;5076012;28;20021;-75
2021/12/19 02:21:52;;;;;;;6.55;4.30;;;19.10;49.20;;;;;;5059317;28;20060;-74
2021/12/19 02:24:19;;;;;;;5.35;4.80;;;19.10;49.40;;;;;;5076251;28;20039;-74
2021/12/19 02:26:47;;;;;;;4.75;4.25;;;19.00;49.40;;;;;;5077459;28;20493;-75
2021/12/19 02:29:12;;;;;;;4.85;4.13;;;19.00;49.40;;;;;;5076742;28;20025;-74
2021/12/19 02:31:39;;;;;;;4.40;4.00;;;19.00;49.40;;;;;;5059892;28;20388;-74
2021/12/19 02:34:14;;;;;;;7.00;4.53;;;19.00;49.50;;;;;;5043688;28;20028;-74
2021/12/19 02:37:07;;;;;;;4.88;3.90;;;18.90;49.60;;;;;;5044774;28;20028;-74
2021/12/19 02:39:51;;;;;;;5.05;4.40;;;18.90;49.70;;;;;;5061007;28;20090;-74
2021/12/19 02:50:14;;;;;;;5.25;4.50;;;18.80;49.90;;;;;;5061533;28;20108;-75
2021/12/19 02:52:40;;;;;;;5.22;4.43;;;18.80;50.00;;;;;;5058648;28;20025;-73
2021/12/19 02:55:06;;;;;;;5.30;4.00;;;18.80;50.00;;;;;;5076012;28;20032;-74
2021/12/19 02:57:34;;;;;;;4.38;3.97;;;18.70;50.10;;;;;;5059237;28;20017;-74
2021/12/19 03:00:00;;;;;;;4.25;3.83;;;18.70;50.20;;;;;;5076861;28;20024;-74
2021/12/19 03:02:26;;;;;;;4.88;4.10;;;18.70;50.30;;;;;;5059429;28;20023;-75
2021/12/19 03:04:56;;;;;;;4.53;3.88;;;18.70;50.30;;;;;;5059118;28;20032;-73
2021/12/19 03:07:24;;;;;;;4.70;3.87;;;18.60;50.30;;;;;;5059302;28;20021;-72
2021/12/19 03:17:59;;;;;;;7.05;4.10;;;18.60;50.40;;;;;;5062072;28;20042;-74
2021/12/19 03:20:31;;;;;;;5.00;4.18;;;18.60;50.50;;;;;;5076266;28;20040;-73
2021/12/19 03:22:58;;;;;;;4.13;3.72;;;18.50;51.10;;;;;;5058951;28;20017;-73
2021/12/19 03:25:24;;;;;;;4.38;3.92;;;18.50;50.60;;;;;;5042142;28;20478;-73
2021/12/19 03:27:50;;;;;;;4.63;4.15;;;18.50;50.70;;;;;;5058287;28;20041;-72
2021/12/19 03:30:16;;;;;;;4.50;4.00;;;18.40;50.80;;;;;;5075430;28;20012;-73
2021/12/19 03:32:44;;;;;;;4.35;3.78;;;18.40;50.80;;;;;;5076554;28;20028;-73
2021/12/19 03:35:11;;;;;;;4.70;3.95;;;18.40;50.90;;;;;;5075642;28;20016;-74
2021/12/19 03:37:37;;;;;;;7.90;3.90;;;18.30;50.90;;;;;;5075411;28;20024;-73
2021/12/19 03:40:09;;;;;;;4.18;3.78;;;18.30;51.50;;;;;;5075958;28;20068;-74
2021/12/19 03:42:39;;;;;;;4.95;4.15;;;18.30;51.10;;;;;;5060008;28;20081;-73
2021/12/19 03:45:06;;;;;;;8.00;4.15;;;18.30;51.10;;;;;;5075401;28;20052;-74
2021/12/19 03:47:33;;;;;;;6.55;4.22;;;18.30;51.20;;;;;;5075120;28;20009;-73
2021/12/19 03:49:59;;;;;;;4.32;3.70;;;18.20;51.20;;;;;;5074948;28;20005;-73
2021/12/19 03:52:25;;;;;;;4.78;4.28;;;18.30;51.50;;;;;;5058394;28;20531;-73
2021/12/19 03:54:51;;;;;;;5.75;4.57;;;18.20;51.20;;;;;;5076356;28;20100;-74
2021/12/19 03:57:17;;;;;;;5.05;3.70;;;18.20;51.20;;;;;;5076344;28;20016;-73
2021/12/19 03:59:47;;;;;;;5.15;4.00;;;18.20;51.30;;;;;;5057866;28;20048;-74
2021/12/19 04:02:16;;;;;;;4.43;3.88;;;18.20;51.40;;;;;;5074708;28;20013;-73
2021/12/19 04:04:42;;;;;;;4.25;3.85;;;18.20;51.40;;;;;;5057882;28;20464;-72
2021/12/19 04:07:08;;;;;;;5.78;4.32;;;18.20;51.30;;;;;;5057455;28;20036;-72
2021/12/19 04:09:33;;;;;;;4.13;3.72;;;18.10;51.40;;;;;;5057189;28;20022;-72
2021/12/19 04:12:00;;;;;;;4.68;4.18;;;18.10;51.50;;;;;;5075313;28;20028;-73
2021/12/19 04:14:26;;;;;;;4.68;4.00;;;18.10;51.70;;;;;;5075215;28;20020;-72
2021/12/19 04:16:53;;;;;;;4.57;4.18;;;18.00;51.70;;;;;;5057412;28;20020;-72
2021/12/19 04:19:20;;;;;;;7.05;4.40;;;18.00;51.90;;;;;;5075054;28;20013;-72
2021/12/19 04:21:46;;;;;;;4.07;3.63;;;18.00;51.90;;;;;;5074632;28;20572;-73
2021/12/19 04:24:13;;;;;;;4.97;4.45;;;17.90;51.90;;;;;;5075138;28;20040;-73
2021/12/19 04:26:39;;;;;;;4.28;3.75;;;17.90;51.90;;;;;;5074091;28;20024;-72
2021/12/19 04:29:06;;;;;;;5.05;4.53;;;17.90;52.00;;;;;;5074268;28;20009;-72
2021/12/19 04:31:32;;;;;;;4.20;3.80;;;17.90;52.10;;;;;;5080502;28;20017;-73
2021/12/19 04:33:58;;;;;;;4.30;3.90;;;17.80;52.00;;;;;;5091744;28;20035;-73
2021/12/19 04:36:31;;;;;;;4.70;4.15;;;17.80;52.10;;;;;;5090632;28;20028;-73
2021/12/19 04:44:43;;;;;;;4.15;3.55;;;17.80;52.20;;;;;;5073309;28;20032;-73
2021/12/19 05:00:15;;;;;;;5.80;4.20;;;17.70;52.40;;;;;;5079029;28;20017;-72
2021/12/19 05:16:03;;;;;;;4.57;3.60;;;17.70;52.40;;;;;;5058003;28;20108;-72
2021/12/19 05:18:33;;;;;;;5.05;4.32;;;17.70;52.40;;;;;;5071862;28;20013;-72
2021/12/19 05:21:03;;;;;;;7.32;4.55;;;17.70;52.40;;;;;;5071984;28;20044;-72
2021/12/19 05:25:58;;;;;;;5.65;4.22;;;17.60;52.40;;;;;;5094100;28;20071;-73
2021/12/19 05:28:24;;;;;;;6.93;4.35;;;17.70;52.40;;;;;;5077312;28;20016;-74
2021/12/19 05:30:50;;;;;;;4.82;4.03;;;17.60;52.40;;;;;;5094139;28;20008;-74
2021/12/19 05:33:16;;;;;;;6.57;4.70;;;17.60;52.40;;;;;;5093606;28;20398;-74
2021/12/19 05:45:12;;;;;;;5.32;4.45;;;17.60;52.50;;;;;;5072620;28;20106;-74
2021/12/19 05:46:32;;;;;;;4.35;3.95;;;17.60;52.60;;;;;;5066313;28;20041;-74
2021/12/19 05:48:59;;;;;;;4.95;3.97;;;17.60;52.50;;;;;;5057383;28;20044;-74
2021/12/19 05:51:25;;;;;;;4.40;3.88;;;17.50;52.50;;;;;;5075335;28;20060;-73
2021/12/19 05:53:50;;;;;;;5.05;4.18;;;17.50;52.60;;;;;;5075271;28;20418;-74
2021/12/19 05:56:16;;;;;;;4.57;4.05;;;17.50;52.70;;;;;;5085826;28;20048;-73
2021/12/19 05:58:42;;;;;;;4.50;4.00;;;17.50;52.70;;;;;;5092731;28;20012;-73
2021/12/19 06:01:09;;;;;;;5.25;3.88;;;17.50;52.70;;;;;;5060105;28;20012;-73
2021/12/19 06:03:35;;;;;;;6.63;4.15;;;17.50;52.60;;;;;;5095243;28;20008;-73
2021/12/19 06:06:02;;;;;;;5.53;4.25;;;17.50;52.70;;;;;;5093113;28;20054;-73
2021/12/19 06:08:28;;;;;;;5.40;4.35;;;17.50;52.80;;;;;;5095046;28;20005;-73
2021/12/19 06:10:56;;;;;;;5.75;4.70;;;17.50;52.70;;;;;;5075242;28;20092;-73
2021/12/19 06:13:23;;;;;;;6.78;4.63;;;17.50;52.70;;;;;;5057931;28;20100;-72
2021/12/19 06:15:52;;;;;;;4.82;4.00;;;17.40;52.70;;;;;;5073741;28;20040;-72
2021/12/19 06:18:18;;;;;;;5.15;4.03;;;17.40;52.70;;;;;;5057181;28;20397;-73
2021/12/19 06:20:44;;;;;;;5.53;4.43;;;17.40;52.80;;;;;;5074065;28;20048;-73
2021/12/19 06:23:10;;;;;;;7.38;4.63;;;17.40;52.80;;;;;;5074190;28;20025;-74
2021/12/19 06:25:37;;;;;;;4.95;4.13;;;17.40;52.70;;;;;;5072828;28;20066;-73
2021/12/19 06:28:03;;;;;;;5.93;4.15;;;17.40;52.80;;;;;;5074713;28;20020;-72
2021/12/19 06:30:30;;;;;;;5.40;4.38;;;17.40;52.80;;;;;;5076040;28;20040;-73
2021/12/19 06:32:55;;;;;;;5.20;4.45;;;17.40;52.80;;;;;;5061816;28;20038;-73
2021/12/19 06:35:23;;;;;;;4.75;4.10;;;17.40;52.90;;;;;;5100731;28;20025;-73
2021/12/19 06:37:49;;;;;;;7.43;4.50;;;17.40;52.90;;;;;;5100973;28;20039;-73
2021/12/19 06:40:19;;;;;;;4.75;4.18;;;17.40;52.90;;;;;;5101396;28;20075;-73
2021/12/19 06:42:46;;;;;;;6.50;4.72;;;17.30;52.90;;;;;;5084047;28;20015;-73
2021/12/19 06:45:13;;;;;;;5.32;4.53;;;17.30;52.90;;;;;;5100732;28;20012;-73
2021/12/19 06:47:39;;;;;;;5.18;4.30;;;17.30;52.80;;;;;;5083649;28;20090;-73
2021/12/19 06:50:06;;;;;;;5.75;4.22;;;17.30;52.90;;;;;;5100077;28;20005;-73
2021/12/19 06:52:32;;;;;;;6.13;4.47;;;17.30;52.90;;;;;;5100041;28;20009;-73
2021/12/19 06:54:58;;;;;;;5.65;4.25;;;17.30;53.00;;;;;;5100340;28;20013;-74
2021/12/19 06:57:24;;;;;;;5.75;4.15;;;17.30;53.00;;;;;;5099658;28;20024;-73
2021/12/19 06:59:50;;;;;;;5.30;4.53;;;17.30;53.00;;;;;;5099562;28;20005;-74
2021/12/19 07:02:16;;;;;;;4.72;4.22;;;17.30;52.90;;;;;;5083690;28;20004;-74
2021/12/19 07:04:45;;;;;;;4.20;3.75;;;17.30;52.90;;;;;;5100416;28;20043;-74
2021/12/19 07:07:12;;;;;;;5.78;4.50;;;17.30;53.00;;;;;;5083061;28;20000;-75
2021/12/19 07:09:38;;;;;;;5.85;4.35;;;17.30;53.00;;;;;;5082890;28;20047;-75
2021/12/19 07:12:04;;;;;;;6.60;4.05;;;17.30;53.00;;;;;;5082651;28;20020;-75
2021/12/19 07:14:31;;;;;;;4.85;4.30;;;17.30;52.90;;;;;;5098912;28;20019;-74
2021/12/19 07:16:56;;;;;;;5.05;4.20;;;17.30;53.00;;;;;;5082143;28;20040;-74
2021/12/19 07:19:22;;;;;;;7.10;4.88;;;17.20;52.90;;;;;;5098880;28;20033;-74
2021/12/19 07:21:48;;;;;;;5.30;4.35;;;17.20;53.00;;;;;;5064434;28;20398;-75
2021/12/19 07:24:13;;;;;;;6.43;4.40;;;17.20;53.10;;;;;;5098637;28;20031;-75
2021/12/19 07:26:39;;;;;;;5.72;4.60;;;17.20;52.90;;;;;;5100578;28;20102;-75
2021/12/19 07:29:06;;;;;;;6.25;4.60;;;17.40;52.70;;;;;;5099798;28;20024;-74
2021/12/19 07:31:36;;;;;;;5.22;4.22;;;17.50;52.40;;;;;;5100479;28;20009;-75
2021/12/19 07:34:02;;;;;;;4.80;4.22;;;17.60;52.30;;;;;;5083185;28;20056;-75
2021/12/19 07:36:36;;;;;;;5.55;4.13;;;17.60;52.00;;;;;;5066337;28;20033;-75
2021/12/19 07:39:09;;;;;;;5.13;4.25;;;17.70;52.00;;;;;;5067547;28;20012;-75
2021/12/19 07:41:35;;;;;;;5.90;4.30;;;17.80;51.80;;;;;;5100206;28;20009;-74
2021/12/19 07:44:01;;;;;;;6.63;4.10;;;17.80;51.60;;;;;;5100154;28;20046;-75
2021/12/19 07:46:27;;;;;;;4.13;3.72;;;17.90;51.40;;;;;;5099777;28;20024;-75
2021/12/19 07:48:53;;;;;;;4.35;3.95;;;18.00;51.20;;;;;;5100104;28;20009;-75
2021/12/19 07:51:21;;;;;;;4.97;4.03;;;18.10;51.10;;;;;;5082922;28;20009;-75
2021/12/19 07:53:47;;;;;;;6.15;4.13;;;18.10;50.80;;;;;;5082941;28;20005;-75
2021/12/19 07:56:33;;;;;;;6.03;3.95;;;18.20;50.70;;;;;;5099226;28;20028;-75
2021/12/19 07:58:59;;;;;;;4.72;3.70;;;18.30;50.50;;;;;;5099309;28;20032;-75
2021/12/19 08:01:45;;;;;;;5.72;3.50;;;18.40;50.40;;;;;;5099191;28;20029;-74
2021/12/19 08:04:10;;;;;;;4.18;3.78;;;18.40;50.10;;;;;;5099018;28;20084;-74
2021/12/19 08:06:36;;;;;;;6.00;4.03;;;18.40;50.00;;;;;;5081926;28;20009;-74
2021/12/19 08:09:21;;;;;;;4.70;4.03;;;18.50;50.00;;;;;;5098093;28;20037;-74
2021/12/19 08:11:48;;;;;;;4.15;3.65;;;18.50;49.80;;;;;;5083711;28;20020;-74
2021/12/19 08:14:30;;;;;;;4.57;3.75;;;18.50;49.80;;;;;;5098218;28;20031;-74
2021/12/19 08:16:57;;;;;;;5.18;3.80;;;18.50;49.80;;;;;;5098472;28;20020;-75
2021/12/19 08:19:23;;;;;;;4.93;4.18;;;18.50;49.80;;;;;;5098239;28;20008;-74
2021/12/19 08:21:50;;;;;;;4.18;3.55;;;18.60;49.90;;;;;;5065494;28;20043;-75
2021/12/19 08:24:16;;;;;;;4.30;3.80;;;18.60;49.90;;;;;;5056475;28;20049;-75
2021/12/19 08:26:43;;;;;;;4.43;3.80;;;18.50;49.80;;;;;;5072622;28;20074;-73
2021/12/19 08:29:10;;;;;;;4.55;3.75;;;18.60;49.80;;;;;;5055333;28;20082;-74
2021/12/19 08:31:37;;;;;;;4.10;3.50;;;18.50;49.70;;;;;;5071247;28;20045;-73
2021/12/19 08:34:03;;;;;;;4.25;3.83;;;18.50;49.70;;;;;;5071353;28;20021;-73
2021/12/19 08:36:29;;;;;;;3.92;3.53;;;18.60;49.70;;;;;;5054513;28;20096;-74
2021/12/19 08:38:55;;;;;;;4.40;3.60;;;18.60;49.60;;;;;;5070709;28;20383;-74
2021/12/19 08:41:21;;;;;;;5.45;3.95;;;18.60;49.60;;;;;;5053542;28;20498;-72
2021/12/19 08:43:47;;;;;;;4.15;3.67;;;18.60;49.60;;;;;;5070414;28;20029;-72
2021/12/19 08:46:13;;;;;;;3.85;3.45;;;18.60;49.50;;;;;;5053607;28;20542;-71
2021/12/19 08:48:39;;;;;;;4.45;3.78;;;18.70;49.50;;;;;;5052849;28;20029;-71
2021/12/19 08:51:05;;;;;;;3.78;3.35;;;18.70;49.70;;;;;;5054390;28;20548;-71
2021/12/19 08:53:31;;;;;;;4.30;3.88;;;18.70;49.50;;;;;;5053554;28;20045;-72
2021/12/19 08:55:58;;;;;;;6.03;3.80;;;18.70;49.40;;;;;;5055030;28;20021;-73
2021/12/19 08:58:25;;;;;;;4.57;3.70;;;18.70;49.40;;;;;;5070150;28;20498;-71
2021/12/19 09:00:51;;;;;;;4.68;3.22;;;18.70;49.30;;;;;;5069612;28;20463;-72
2021/12/19 09:03:17;;;;;;;3.65;3.30;;;18.80;49.30;;;;;;5070252;28;20032;-74
2021/12/19 09:05:43;;;;;;;4.30;3.22;;;18.80;49.40;;;;;;5053994;28;20021;-74
2021/12/19 09:08:09;;;;;;;4.47;3.40;;;18.80;49.30;;;;;;5069536;28;20471;-74
2021/12/19 09:10:37;;;;;;;4.72;3.40;;;18.80;49.20;;;;;;5054027;28;20033;-74
2021/12/19 09:13:02;;;;;;;6.43;3.50;;;18.80;49.20;;;;;;5069077;28;20106;-75
2021/12/19 09:15:29;;;;;;;3.90;3.35;;;18.80;49.20;;;;;;5052220;28;20126;-74
2021/12/19 09:17:55;;;;;;;5.05;3.60;;;18.80;49.20;;;;;;5068654;28;20459;-74
2021/12/19 09:20:22;;;;;;;6.63;3.28;;;18.90;49.20;;;;;;5056920;28;20059;-74
2021/12/19 09:22:48;;;;;;;3.70;3.40;;;18.90;49.20;;;;;;5073767;28;20490;-72
2021/12/19 09:25:15;;;;;;;3.83;3.22;;;18.90;49.20;;;;;;5072747;28;20548;-72
2021/12/19 09:27:41;;;;;;;3.95;3.45;;;18.90;49.20;;;;;;5073647;28;20040;-74
2021/12/19 09:30:08;;;;;;;4.40;3.50;;;18.90;49.20;;;;;;5074111;28;20066;-73
2021/12/19 09:32:34;;;;;;;4.78;3.75;;;18.90;49.10;;;;;;5074236;28;20031;-73
2021/12/19 09:34:59;;;;;;;4.82;3.92;;;18.90;49.10;;;;;;5073876;28;20424;-73
2021/12/19 09:37:27;;;;;;;3.92;3.33;;;18.90;49.10;;;;;;5073567;28;20059;-73
2021/12/19 09:39:54;;;;;;;3.67;3.38;;;18.90;49.10;;;;;;5073398;28;20363;-74
2021/12/19 09:42:23;;;;;;;4.18;3.58;;;19.00;49.00;;;;;;5073302;28;20027;-73
2021/12/19 09:44:49;;;;;;;3.75;3.03;;;19.00;49.00;;;;;;5073964;28;20016;-76
2021/12/19 09:47:15;;;;;;;3.75;2.97;;;19.00;49.00;;;;;;5074974;28;20020;-76
2021/12/19 09:49:41;;;;;;;4.20;3.10;;;19.00;48.90;;;;;;5075106;28;20020;-76
2021/12/19 09:52:10;;;;;;;5.25;3.45;;;19.00;48.90;;;;;;5056913;28;20017;-76
2021/12/19 09:54:37;;;;;;;3.78;2.90;;;19.00;48.90;;;;;;5056618;28;20078;-76
2021/12/19 09:57:04;;;;;;;4.10;3.28;;;19.00;48.90;;;;;;5072426;28;20021;-76
2021/12/19 09:59:29;;;;;;;4.90;3.22;;;19.10;48.90;;;;;;5055374;28;20016;-75
2021/12/19 10:01:55;;;;;;;4.15;3.20;;;19.10;48.90;;;;;;5042473;28;20035;-76
2021/12/19 10:04:36;;;;;;;4.32;3.42;;;19.10;48.80;;;;;;5076590;28;20051;-76
2021/12/19 10:07:19;;;;;;;4.93;3.03;;;19.10;48.80;;;;;;5042437;28;20103;-76
2021/12/19 10:10:10;;;;;;;3.28;2.97;;;19.10;48.80;;;;;;5058952;28;20009;-75
2021/12/19 10:12:48;;;;;;;4.20;3.42;;;19.10;48.80;;;;;;5075900;28;20021;-75
2021/12/19 10:15:19;;;;;;;3.72;3.20;;;19.10;48.90;;;;;;5043237;28;20023;-75
2021/12/19 10:17:46;;;;;;;;;;;19.10;48.90;;;;;;5043069;28;20013;-75
2021/12/19 10:20:14;;;;;;;3.40;3.03;;;19.10;48.80;;;;;;5042204;28;19942;-75
2021/12/19 10:22:49;;;;;;;3.53;2.90;;;19.10;48.80;;;;;;5059385;28;20039;-75
2021/12/19 10:25:30;;;;;;;4.85;3.13;;;19.10;48.80;;;;;;5075983;28;20037;-75
2021/12/19 10:28:01;;;;;;;5.47;2.90;;;19.10;48.90;;;;;;5077178;28;20008;-75
2021/12/19 10:30:31;;;;;;;;;;;19.10;48.80;;;;;;5059559;28;20044;-76
2021/12/19 10:33:09;;;;;;;3.92;3.05;;;19.10;48.80;;;;;;5058999;28;19905;-75
2021/12/19 10:35:43;;;;;;;3.85;3.42;;;19.20;48.80;;;;;;5075654;28;20066;-75
2021/12/19 10:38:28;;;;;;;3.42;3.05;;;19.10;48.80;;;;;;5075830;28;20016;-75
2021/12/19 10:40:58;;;;;;;4.60;3.60;;;19.20;48.80;;;;;;5076505;28;20024;-75
2021/12/19 10:43:27;;;;;;;2.83;2.60;;;19.10;48.80;;;;;;5074917;28;20020;-75
2021/12/19 10:46:07;;;;;;;3.53;3.22;;;19.10;48.80;;;;;;5058629;28;20021;-75
2021/12/19 10:48:36;;;;;;;3.63;3.00;;;19.10;48.80;;;;;;5072414;28;20355;-75
2021/12/19 10:51:06;;;;;;;4.10;3.03;;;19.10;48.80;;;;;;5058921;28;20013;-75
2021/12/19 10:53:55;;;;;;;4.18;3.20;;;19.20;48.80;;;;;;5075344;28;20382;-75
2021/12/19 10:56:26;;;;;;;3.55;2.72;;;19.20;48.90;;;;;;5057495;28;20016;-75
2021/12/19 10:58:56;;;;;;;3.40;2.95;;;19.10;48.80;;;;;;5057543;28;20414;-75
2021/12/19 11:01:29;;;;;;;3.30;3.00;;;19.20;48.70;;;;;;5057616;28;20021;-75
2021/12/19 11:04:05;;;;;;;3.60;3.28;;;19.20;48.70;;;;;;5057636;28;20025;-75
2021/12/19 11:06:39;;;;;;;4.05;3.15;;;19.20;48.90;;;;;;5057483;28;20013;-75
2021/12/19 11:09:22;;;;;;;3.47;2.90;;;19.20;48.80;;;;;;5058302;28;20013;-75
2021/12/19 11:11:57;;;;;;;3.30;3.00;;;19.20;49.40;;;;;;5041684;28;20081;-74
2021/12/19 11:14:28;;;;;;;3.22;2.92;;;19.20;48.80;;;;;;5075839;28;20021;-75
2021/12/19 11:16:56;;;;;;;3.88;3.20;;;19.20;48.70;;;;;;5059126;28;20040;-75
2021/12/19 11:19:23;;;;;;;3.28;2.90;;;19.20;48.80;;;;;;5058551;28;20036;-75
2021/12/19 11:21:49;;;;;;;3.97;3.08;;;19.30;48.80;;;;;;5075474;28;20033;-74
2021/12/19 11:24:19;;;;;;;3.67;3.15;;;19.20;48.80;;;;;;5075025;28;20108;-76
2021/12/19 11:26:47;;;;;;;3.28;2.80;;;19.20;48.80;;;;;;5075344;28;20012;-74
2021/12/19 11:29:14;;;;;;;3.25;2.65;;;19.20;48.70;;;;;;5058982;28;20016;-75
2021/12/19 11:31:41;;;;;;;4.20;3.28;;;19.30;48.80;;;;;;5058798;28;20012;-75
2021/12/19 11:34:13;;;;;;;3.38;2.92;;;19.20;48.80;;;;;;5075014;28;20099;-75
2021/12/19 11:36:40;;;;;;;3.20;2.88;;;19.30;48.80;;;;;;5057989;28;20479;-75
2021/12/19 11:39:06;;;;;;;3.10;2.78;;;19.30;48.80;;;;;;5074811;28;20016;-74
2021/12/19 11:41:33;;;;;;;3.03;2.60;;;19.30;48.70;;;;;;5058322;28;20112;-75
2021/12/19 11:44:04;;;;;;;3.45;2.85;;;19.20;48.70;;;;;;5058663;28;20070;-75
2021/12/19 11:46:50;;;;;;;4.78;2.60;;;19.30;48.70;;;;;;5059356;28;20023;-74
2021/12/19 11:49:23;;;;;;;4.70;3.05;;;19.30;48.80;;;;;;5059489;28;20036;-74
2021/12/19 11:51:49;;;;;;;4.38;3.00;;;19.30;48.80;;;;;;5059101;28;20021;-74
2021/12/19 11:54:17;;;;;;;3.13;2.83;;;19.30;48.80;;;;;;5059646;28;20020;-74
2021/12/19 11:57:07;;;;;;;3.42;3.13;;;19.20;48.80;;;;;;5060814;28;20020;-74
2021/12/19 11:59:33;;;;;;;3.10;2.80;;;19.30;48.80;;;;;;5060502;28;20021;-75
2021/12/19 12:02:24;;;;;;;3.30;2.85;;;19.30;48.80;;;;;;5060884;28;20019;-75
2021/12/19 12:05:15;;;;;;;3.78;3.03;;;19.30;48.80;;;;;;5077537;28;20096;-74
2021/12/19 12:08:10;;;;;;;3.55;3.03;;;19.30;48.70;;;;;;5077298;28;20017;-75
2021/12/19 12:10:51;;;;;;;3.20;2.65;;;19.30;48.80;;;;;;5058278;28;20012;-74
2021/12/19 12:13:36;;;;;;;3.92;2.70;;;19.30;48.70;;;;;;5076465;28;20013;-74
2021/12/19 12:16:36;;;;;;;2.85;2.50;;;19.30;48.80;;;;;;5075157;28;20028;-74
2021/12/19 12:18:58;;;;;;;3.47;2.83;;;19.30;48.80;;;;;;5075852;28;20032;-74
2021/12/19 12:23:56;;;;;;;3.30;3.00;;;19.30;48.80;;;;;;5055022;28;20134;-74
2021/12/19 12:26:42;;;;;;;3.63;2.85;;;19.30;48.80;;;;;;5056353;28;20096;-74
2021/12/19 12:29:07;;;;;;;2.85;2.55;;;19.30;48.80;;;;;;5058185;28;20001;-73
2021/12/19 12:31:33;;;;;;;2.85;2.55;;;19.30;48.80;;;;;;5041398;28;20497;-74
2021/12/19 12:33:59;;;;;;;2.90;2.55;;;19.30;48.80;;;;;;5056875;28;20430;-74
2021/12/19 12:36:29;;;;;;;3.05;2.72;;;19.30;48.90;;;;;;5073365;28;20066;-74
2021/12/19 12:38:54;;;;;;;2.88;2.50;;;19.30;48.90;;;;;;5057304;28;20032;-74
2021/12/19 12:42:23;;;;;;;2.60;2.40;;;19.30;48.90;;;;;;5056434;28;20025;-74
2021/12/19 12:44:21;;;;;;;2.88;2.63;;;19.30;48.90;;;;;;5047500;28;20033;-73
2021/12/19 12:46:47;;;;;;;2.55;2.33;;;19.30;48.80;;;;;;5072074;28;20014;-73
2021/12/19 12:49:21;;;;;;;2.90;2.50;;;19.30;48.80;;;;;;5056413;28;20017;-73
2021/12/19 12:51:50;;;;;;;3.95;2.55;;;19.30;48.80;;;;;;5054952;28;20020;-73
2021/12/19 12:54:22;;;;;;;3.92;2.70;;;19.30;48.90;;;;;;5056415;28;20119;-74
2021/12/19 12:56:50;;;;;;;3.30;2.65;;;19.30;48.80;;;;;;5054706;28;20028;-73
2021/12/19 12:59:18;;;;;;;3.13;2.40;;;19.30;48.70;;;;;;5054994;28;20031;-73
2021/12/19 13:01:51;;;;;;;3.97;2.80;;;19.30;48.90;;;;;;5070781;28;20017;-73
2021/12/19 13:04:22;;;;;;;2.70;2.33;;;19.30;48.90;;;;;;5054095;28;20025;-73
2021/12/19 13:07:02;;;;;;;2.92;2.30;;;19.30;48.80;;;;;;5070581;28;20014;-73
2021/12/19 13:09:49;;;;;;;3.08;2.38;;;19.30;48.80;;;;;;5071173;28;20015;-74
2021/12/19 13:12:27;;;;;;;3.00;2.55;;;19.30;48.80;;;;;;5055299;28;20017;-72
2021/12/19 13:14:55;;;;;;;2.70;2.50;;;19.30;48.80;;;;;;5057385;28;20017;-73
2021/12/19 13:17:50;;;;;;;3.33;2.65;;;19.30;48.80;;;;;;5072559;28;20021;-72
2021/12/19 13:20:20;;;;;;;2.85;2.60;;;19.30;48.90;;;;;;5074588;28;20052;-72
2021/12/19 13:22:54;;;;;;;3.17;2.55;;;19.30;48.80;;;;;;5058848;28;20074;-72
2021/12/19 13:25:29;;;;;;;2.75;2.40;;;19.30;48.90;;;;;;5075194;28;20032;-73
2021/12/19 13:28:00;;;;;;;3.17;2.50;;;19.30;48.80;;;;;;5059034;28;20028;-74
2021/12/19 13:30:31;;;;;;;2.95;2.47;;;19.40;48.80;;;;;;5058166;28;20013;-73
2021/12/19 13:33:00;;;;;;;;;;;19.40;48.80;;;;;;5076681;28;20475;-73
2021/12/19 13:35:28;;;;;;;3.88;2.20;;;19.40;48.80;;;;;;5077864;28;19987;-73
2021/12/19 13:38:01;;;;;;;4.05;2.70;;;19.30;48.80;;;;;;5080699;28;20024;-73
2021/12/19 13:40:30;;;;;;;3.08;2.53;;;19.30;48.90;;;;;;5080725;28;20017;-73
2021/12/19 13:43:17;;;;;;;4.18;2.70;;;19.30;48.90;;;;;;5045898;28;20369;-74
2021/12/19 13:46:04;;;;;;;3.00;2.70;;;19.40;48.80;;;;;;5046318;28;20025;-73
2021/12/19 13:48:54;;;;;;;3.58;2.90;;;19.40;48.80;;;;;;5045769;28;20074;-73
2021/12/19 13:51:23;;;;;;;2.78;2.30;;;19.40;48.80;;;;;;5062122;28;20024;-73
2021/12/19 13:53:53;;;;;;;2.47;2.28;;;19.40;48.80;;;;;;5078504;28;20020;-73
2021/12/19 13:56:20;;;;;;;2.85;2.55;;;19.30;48.90;;;;;;5059021;28;20012;-72
2021/12/19 13:58:50;;;;;;;2.63;2.40;;;19.30;48.90;;;;;;5059287;28;20012;-72
2021/12/19 14:01:18;;;;;;;;;;;19.40;48.90;;;;;;5076069;28;20024;-73
2021/12/19 14:03:54;;;;;;;2.53;2.33;;;19.30;48.80;;;;;;5059267;28;19912;-73